Lynchburg, Texas
Current Conditions -  °F | °C
As of 4:50 AM on Saturday 22 Nov 2014 (Local Time) from KEFD Reporting Station
Few Clouds Few Clouds  
Wind Chill: 63°   Ceiling: Unl
Heat Index: 63°   Visibility: 10mi
Dew Point: 63°   Wind: 9mph
Humidity: 100%   Direction: 90°E
Pressure: 30.08"   Gusts: NA
Location:  29.7803°N, 94.894°W
Report Text: KEFD 221050Z 09008KT 10SM FEW090 17/17 A3008
Loading
Personal Weather Stations






























Interactive Weather Map New forecast layout! Learn more

10-Day Weather Forecast

Advertisements
Track Severe Weather on mobile